Time;durP1;ratioP1;P1;durP2;ratioP2;P2;SDS_P1;SDS_P2;PMS_P1;PMS_P2;Temp;Humidity;BMP_temperature;BMP_pressure;BME280_temperature;BME280_humidity;BME280_pressure;Samples;Min_cycle;Max_cycle;Signal;HPM_P1;HPM_P2
2022/03/12 00:00:43;;;;;;;13.20;9.43;;;-1.80;54.10;;;;;;5055269;28;20116;-58
2022/03/12 00:03:10;;;;;;;18.08;9.48;;;-1.80;54.40;;;;;;5051870;28;20059;-58
2022/03/12 00:05:37;;;;;;;16.50;9.20;;;-1.80;54.20;;;;;;5051755;28;20025;-58
2022/03/12 00:08:05;;;;;;;11.63;8.32;;;-1.80;54.20;;;;;;5052351;28;20025;-58
2022/03/12 00:10:34;;;;;;;11.82;8.57;;;-1.80;54.50;;;;;;5058898;28;20025;-58
2022/03/12 00:13:01;;;;;;;16.33;9.07;;;-1.90;54.60;;;;;;5057323;28;20056;-58
2022/03/12 00:15:32;;;;;;;12.57;9.45;;;-1.90;54.50;;;;;;5051355;28;20032;-59
2022/03/12 00:17:58;;;;;;;12.93;8.68;;;-1.90;54.20;;;;;;5062085;28;20566;-58
2022/03/12 00:20:26;;;;;;;17.38;8.35;;;-1.90;54.60;;;;;;5064768;28;20123;-58
2022/03/12 00:22:52;;;;;;;10.85;7.15;;;-2.00;54.40;;;;;;5051352;28;20055;-58
2022/03/12 00:25:21;;;;;;;10.13;7.88;;;-2.00;54.40;;;;;;5050975;28;20029;-58
2022/03/12 00:27:47;;;;;;;16.05;9.38;;;-2.10;54.50;;;;;;5068434;28;20158;-58
2022/03/12 00:30:18;;;;;;;11.35;8.52;;;-2.10;54.80;;;;;;5065022;28;20025;-58
2022/03/12 00:32:45;;;;;;;12.25;8.48;;;-2.10;55.10;;;;;;5051850;28;20110;-58
2022/03/12 00:35:13;;;;;;;13.43;9.07;;;-2.20;55.80;;;;;;5051578;28;20067;-59
2022/03/12 00:37:39;;;;;;;14.75;8.88;;;-2.20;55.90;;;;;;5062248;28;20016;-58
2022/03/12 00:40:05;;;;;;;15.23;8.35;;;-2.30;56.30;;;;;;5066500;28;20028;-56
2022/03/12 00:42:31;;;;;;;10.77;8.23;;;-2.30;56.10;;;;;;5051202;28;20096;-58
2022/03/12 00:44:58;;;;;;;9.70;8.52;;;-2.20;56.60;;;;;;5051433;28;20368;-57
2022/03/12 00:47:24;;;;;;;18.73;9.18;;;-2.30;56.70;;;;;;5060273;28;20096;-58
2022/03/12 00:49:50;;;;;;;13.77;9.05;;;-2.30;56.80;;;;;;5069234;28;20119;-57
2022/03/12 00:52:18;;;;;;;12.05;8.88;;;-2.30;57.00;;;;;;5050915;28;20116;-57
2022/03/12 00:54:44;;;;;;;14.77;9.75;;;-2.40;57.40;;;;;;5054911;28;20032;-58
2022/03/12 00:57:12;;;;;;;14.18;8.75;;;-2.40;57.00;;;;;;5070799;28;20029;-57
2022/03/12 00:59:41;;;;;;;14.02;9.25;;;-2.50;57.00;;;;;;5068151;28;20051;-58
2022/03/12 01:02:10;;;;;;;13.23;9.15;;;-2.50;57.10;;;;;;5051443;28;20104;-57
2022/03/12 01:04:36;;;;;;;11.75;9.00;;;-2.50;57.30;;;;;;5050316;28;20052;-58
2022/03/12 01:07:03;;;;;;;17.23;8.45;;;-2.50;57.00;;;;;;5053920;28;20025;-59
2022/03/12 01:09:29;;;;;;;13.05;8.93;;;-2.60;57.10;;;;;;5068379;28;20116;-58
2022/03/12 01:11:55;;;;;;;13.20;9.13;;;-2.60;57.10;;;;;;5051271;28;20104;-57
2022/03/12 01:14:21;;;;;;;14.15;9.85;;;-2.60;57.60;;;;;;5049173;28;20616;-56
2022/03/12 01:16:46;;;;;;;15.45;8.93;;;-2.60;57.40;;;;;;5060015;28;20067;-55
2022/03/12 01:19:13;;;;;;;12.18;8.63;;;-2.60;57.20;;;;;;5069181;28;20055;-54
2022/03/12 01:21:38;;;;;;;16.70;9.85;;;-2.60;57.10;;;;;;5064714;28;20021;-57
2022/03/12 01:24:04;;;;;;;12.35;9.20;;;-2.50;56.70;;;;;;5050346;28;20028;-53
2022/03/12 01:26:30;;;;;;;11.95;8.68;;;-2.50;57.30;;;;;;5062109;28;20752;-52
2022/03/12 01:28:56;;;;;;;11.70;8.93;;;-2.50;57.20;;;;;;5051190;28;20045;-51
2022/03/12 01:31:22;;;;;;;10.30;7.55;;;-2.50;57.40;;;;;;5050372;28;20063;-52
2022/03/12 01:33:48;;;;;;;8.30;7.00;;;-2.60;57.60;;;;;;5048471;28;20033;-55
2022/03/12 01:36:15;;;;;;;11.95;9.05;;;-2.50;57.30;;;;;;5051222;28;20005;-58
2022/03/12 01:38:53;;;;;;;13.23;8.30;;;-2.50;57.40;;;;;;5052193;28;20043;-56
2022/03/12 01:41:22;;;;;;;14.73;8.40;;;-2.50;57.20;;;;;;5054377;28;20025;-54
2022/03/12 01:43:49;;;;;;;10.32;8.35;;;-2.50;56.90;;;;;;5054594;28;20021;-52
2022/03/12 01:46:15;;;;;;;17.40;7.88;;;-2.50;57.20;;;;;;5064828;28;20027;-53
2022/03/12 01:48:50;;;;;;;11.93;8.05;;;-2.50;56.80;;;;;;5073351;28;20058;-57
2022/03/12 01:51:16;;;;;;;9.25;8.18;;;-2.60;56.90;;;;;;5074363;28;20020;-52
2022/03/12 01:53:43;;;;;;;9.48;8.35;;;-2.50;57.10;;;;;;5062748;28;20029;-54
2022/03/12 01:56:09;;;;;;;16.38;8.35;;;-2.50;56.80;;;;;;5064941;28;20024;-55
2022/03/12 01:58:35;;;;;;;13.13;8.63;;;-2.50;56.40;;;;;;5072932;28;20024;-55
2022/03/12 02:01:01;;;;;;;16.67;9.50;;;-2.50;56.30;;;;;;5072383;28;20013;-53
2022/03/12 02:03:28;;;;;;;10.13;8.07;;;-2.50;56.70;;;;;;5074126;28;20020;-54
2022/03/12 02:05:55;;;;;;;13.55;9.40;;;-2.60;56.50;;;;;;5066841;28;20074;-54
2022/03/12 02:08:21;;;;;;;10.82;7.93;;;-2.60;57.30;;;;;;5054347;28;20033;-56
2022/03/12 02:10:49;;;;;;;11.45;8.93;;;-2.70;57.00;;;;;;5072086;28;20036;-55
2022/03/12 02:13:16;;;;;;;12.25;9.02;;;-2.70;57.50;;;;;;5073947;28;20127;-55
2022/03/12 02:15:43;;;;;;;16.88;8.07;;;-2.70;57.90;;;;;;5072297;28;20021;-52
2022/03/12 02:18:09;;;;;;;10.45;7.53;;;-2.70;57.50;;;;;;5060942;28;20094;-54
2022/03/12 02:20:35;;;;;;;11.43;8.07;;;-2.70;57.90;;;;;;5072332;28;20029;-54
2022/03/12 02:23:00;;;;;;;11.27;8.63;;;-2.80;58.20;;;;;;5073865;28;20025;-52
2022/03/12 02:25:31;;;;;;;16.40;8.95;;;-2.80;58.40;;;;;;5068994;28;20412;-54
2022/03/12 02:27:59;;;;;;;16.20;9.60;;;-2.80;58.70;;;;;;5054140;28;20041;-53
2022/03/12 02:30:34;;;;;;;11.32;7.50;;;-2.90;59.00;;;;;;5055015;28;20037;-58
2022/03/12 02:33:02;;;;;;;12.35;8.77;;;-2.90;59.30;;;;;;5073513;28;20025;-55
2022/03/12 02:35:33;;;;;;;11.93;9.15;;;-3.00;60.10;;;;;;5061050;28;20032;-53
2022/03/12 02:37:59;;;;;;;11.38;8.02;;;-3.00;60.20;;;;;;5059289;28;20107;-54
2022/03/12 02:40:24;;;;;;;13.50;9.25;;;-3.10;60.20;;;;;;5052531;28;20036;-56
2022/03/12 02:42:55;;;;;;;11.80;8.98;;;-3.10;60.50;;;;;;5066692;28;20036;-52
2022/03/12 02:45:22;;;;;;;10.23;8.45;;;-3.20;61.20;;;;;;5071716;28;20024;-55
2022/03/12 02:47:49;;;;;;;13.05;8.05;;;-3.20;61.40;;;;;;5053425;28;20021;-54
2022/03/12 02:50:15;;;;;;;17.35;9.73;;;-3.30;61.90;;;;;;5052486;28;20039;-55
2022/03/12 02:52:44;;;;;;;12.43;8.05;;;-3.40;62.00;;;;;;5065266;28;20028;-51
2022/03/12 02:55:13;;;;;;;15.82;8.75;;;-3.40;62.20;;;;;;5073440;28;20113;-53
2022/03/12 02:57:40;;;;;;;12.57;8.60;;;-3.40;62.30;;;;;;5072914;28;20371;-56
2022/03/12 03:00:08;;;;;;;11.30;8.85;;;-3.50;63.00;;;;;;5071957;28;20032;-56
2022/03/12 03:02:41;;;;;;;10.65;9.25;;;-3.50;62.90;;;;;;5055259;28;20036;-58
2022/03/12 03:08:04;;;;;;;12.35;7.85;;;-3.50;63.90;;;;;;5053299;28;20039;-54
2022/03/12 03:10:40;;;;;;;14.85;9.07;;;-3.50;64.40;;;;;;5053068;28;20108;-58
2022/03/12 03:13:18;;;;;;;11.10;8.38;;;-3.50;64.20;;;;;;5053025;28;20060;-54
2022/03/12 03:15:53;;;;;;;14.68;8.80;;;-3.50;64.60;;;;;;5057042;28;20028;-54
2022/03/12 03:18:22;;;;;;;10.55;7.72;;;-3.40;64.50;;;;;;5068416;28;20119;-53
2022/03/12 03:20:49;;;;;;;14.05;9.35;;;-3.40;64.10;;;;;;5052245;28;20159;-58
2022/03/12 03:23:15;;;;;;;20.60;9.20;;;-3.40;64.60;;;;;;5050969;28;20059;-54
2022/03/12 03:25:41;;;;;;;13.00;8.95;;;-3.40;64.50;;;;;;5060769;28;20025;-57
2022/03/12 03:28:08;;;;;;;12.48;8.48;;;-3.30;64.50;;;;;;5054019;28;20040;-58
2022/03/12 03:30:37;;;;;;;12.55;8.05;;;-3.30;63.80;;;;;;5052632;28;20515;-57
2022/03/12 03:33:07;;;;;;;9.15;8.25;;;-3.30;64.30;;;;;;5064397;28;20404;-57
2022/03/12 03:35:34;;;;;;;16.42;9.18;;;-3.20;64.40;;;;;;5072446;28;20531;-58
2022/03/12 03:38:00;;;;;;;14.70;10.05;;;-3.20;65.00;;;;;;5072304;28;20039;-54
2022/03/12 03:40:26;;;;;;;10.48;8.60;;;-3.30;65.50;;;;;;5072791;28;20051;-57
2022/03/12 03:42:53;;;;;;;17.23;8.45;;;-3.20;65.60;;;;;;5063568;28;20094;-56
2022/03/12 03:45:23;;;;;;;9.75;8.63;;;-3.20;65.50;;;;;;5052631;28;20531;-56
2022/03/12 03:47:52;;;;;;;14.60;9.65;;;-3.20;65.40;;;;;;5063803;28;20036;-57
2022/03/12 03:50:20;;;;;;;11.82;8.45;;;-3.20;65.10;;;;;;5059383;28;20085;-55
2022/03/12 03:52:46;;;;;;;19.17;9.45;;;-3.20;65.00;;;;;;5071955;28;20036;-56
2022/03/12 03:55:11;;;;;;;12.27;8.80;;;-3.20;64.50;;;;;;5072417;28;20028;-56
2022/03/12 03:57:37;;;;;;;11.50;9.35;;;-3.20;64.10;;;;;;5054136;28;20115;-55
2022/03/12 04:00:04;;;;;;;13.18;8.55;;;-3.20;63.70;;;;;;5051810;28;20031;-52
2022/03/12 04:02:30;;;;;;;11.07;8.30;;;-3.20;62.90;;;;;;5060857;28;20051;-53
2022/03/12 04:04:56;;;;;;;12.40;9.52;;;-3.20;63.00;;;;;;5072149;28;20027;-52
2022/03/12 04:07:21;;;;;;;13.60;9.43;;;-3.20;63.20;;;;;;5053887;28;20020;-54
2022/03/12 04:09:48;;;;;;;14.38;8.95;;;-3.20;64.40;;;;;;5051976;28;20029;-58
2022/03/12 04:12:14;;;;;;;13.27;9.02;;;-3.30;63.60;;;;;;5052231;28;20021;-57
2022/03/12 04:14:39;;;;;;;14.88;9.05;;;-3.30;64.60;;;;;;5051768;28;20578;-55
2022/03/12 04:17:05;;;;;;;15.23;8.65;;;-3.40;65.30;;;;;;5061986;28;20033;-52
2022/03/12 04:19:33;;;;;;;14.65;9.88;;;-3.40;64.70;;;;;;5071469;28;20032;-56
2022/03/12 04:21:58;;;;;;;11.95;8.57;;;-3.50;66.00;;;;;;5070392;28;20481;-56
2022/03/12 04:24:25;;;;;;;13.15;8.30;;;-3.50;65.30;;;;;;5050660;28;20021;-56
2022/03/12 04:26:51;;;;;;;10.73;8.38;;;-3.50;66.80;;;;;;5052742;28;20035;-57
2022/03/12 04:29:18;;;;;;;12.75;8.80;;;-3.60;67.10;;;;;;5051798;28;20059;-50
2022/03/12 04:31:47;;;;;;;13.98;8.30;;;-3.60;69.40;;;;;;5057465;28;20028;-55
2022/03/12 04:34:13;;;;;;;12.80;8.65;;;-3.70;69.00;;;;;;5069632;28;20491;-51
2022/03/12 04:36:44;;;;;;;10.95;7.78;;;-3.80;68.60;;;;;;5060867;28;20037;-55
2022/03/12 04:39:11;;;;;;;10.48;8.30;;;-3.80;69.00;;;;;;5051812;28;20036;-53
2022/03/12 04:41:39;;;;;;;13.57;8.98;;;-3.80;68.90;;;;;;5051399;28;20021;-56
2022/03/12 04:44:06;;;;;;;11.30;8.77;;;-3.80;69.00;;;;;;5060181;28;20028;-57
2022/03/12 04:46:33;;;;;;;14.38;9.50;;;-3.70;69.00;;;;;;5060434;28;20039;-53
2022/03/12 04:48:59;;;;;;;12.23;8.85;;;-3.70;69.10;;;;;;5053306;28;20143;-51
2022/03/12 04:51:24;;;;;;;11.27;8.73;;;-3.70;69.20;;;;;;5051595;28;20021;-56
2022/03/12 04:53:59;;;;;;;13.07;9.05;;;-3.70;69.70;;;;;;5051294;28;20033;-51
2022/03/12 04:56:25;;;;;;;10.68;8.55;;;-3.70;70.00;;;;;;5059284;28;20442;-52
2022/03/12 04:58:53;;;;;;;14.55;8.15;;;-3.70;70.90;;;;;;5069601;28;20066;-55
2022/03/12 05:01:20;;;;;;;12.13;8.02;;;-3.70;69.90;;;;;;5071413;28;20586;-53
2022/03/12 05:03:46;;;;;;;12.57;9.25;;;-3.70;69.30;;;;;;5070950;28;20036;-51
2022/03/12 05:06:13;;;;;;;16.42;9.02;;;-3.60;69.40;;;;;;5056561;28;20016;-52
2022/03/12 05:08:39;;;;;;;10.48;8.32;;;-3.60;69.00;;;;;;5070269;28;20039;-56
2022/03/12 05:11:05;;;;;;;13.60;9.13;;;-3.60;69.30;;;;;;5071296;28;20059;-54
2022/03/12 05:13:32;;;;;;;11.85;8.95;;;-3.60;70.00;;;;;;5058885;28;20045;-58
2022/03/12 05:16:04;;;;;;;10.00;8.48;;;-3.50;69.30;;;;;;5059833;28;20017;-57
2022/03/12 05:18:31;;;;;;;17.25;9.38;;;-3.50;69.00;;;;;;5064404;28;20028;-58
2022/03/12 05:20:58;;;;;;;15.55;8.75;;;-3.50;69.30;;;;;;5065839;28;20422;-56
2022/03/12 05:23:24;;;;;;;13.02;8.60;;;-3.50;69.70;;;;;;5074882;28;20035;-56
2022/03/12 05:25:51;;;;;;;14.90;8.77;;;-3.50;70.80;;;;;;5071930;28;20056;-56
2022/03/12 05:28:25;;;;;;;14.55;8.88;;;-3.40;70.50;;;;;;5053697;28;20533;-56
2022/03/12 05:30:54;;;;;;;16.42;9.05;;;-3.40;71.30;;;;;;5054455;28;20090;-53
2022/03/12 05:33:20;;;;;;;11.02;8.70;;;-3.40;71.20;;;;;;5054353;28;20440;-56
2022/03/12 05:35:47;;;;;;;13.90;9.23;;;-3.40;70.90;;;;;;5059167;28;20059;-56
2022/03/12 05:38:13;;;;;;;19.65;8.48;;;-3.40;70.90;;;;;;5062254;28;20028;-55
2022/03/12 05:40:41;;;;;;;16.30;9.73;;;-3.40;71.20;;;;;;5072147;28;20025;-57
2022/03/12 05:43:12;;;;;;;10.25;8.98;;;-3.30;71.00;;;;;;5071912;28;20020;-54
2022/03/12 05:45:38;;;;;;;14.68;9.30;;;-3.40;70.60;;;;;;5072467;28;20417;-54
2022/03/12 05:48:08;;;;;;;15.10;9.02;;;-3.30;70.00;;;;;;5069224;28;20031;-55
2022/03/12 05:50:35;;;;;;;12.95;8.90;;;-3.30;69.70;;;;;;5072255;28;20024;-57
2022/03/12 05:53:01;;;;;;;16.92;9.18;;;-3.20;68.70;;;;;;5072533;28;20112;-54
2022/03/12 05:55:27;;;;;;;10.45;8.48;;;-3.20;67.90;;;;;;5062905;28;20033;-57
2022/03/12 05:57:53;;;;;;;11.73;9.52;;;-3.10;68.00;;;;;;5053784;28;20509;-55
2022/03/12 06:00:19;;;;;;;11.05;9.13;;;-3.10;67.30;;;;;;5053346;28;20100;-54
2022/03/12 06:02:52;;;;;;;10.48;9.02;;;-3.10;66.30;;;;;;5053034;28;20567;-54
2022/03/12 06:05:20;;;;;;;13.98;8.35;;;-3.00;66.50;;;;;;5053846;28;20048;-53
2022/03/12 06:07:46;;;;;;;28.58;9.13;;;-3.00;66.10;;;;;;5065870;28;20063;-52
2022/03/12 06:10:21;;;;;;;19.05;8.85;;;-2.90;65.90;;;;;;5053964;28;20574;-53
2022/03/12 06:12:47;;;;;;;28.38;9.63;;;-2.90;66.40;;;;;;5055908;28;20710;-54
2022/03/12 06:15:16;;;;;;;15.95;9.82;;;-2.80;66.80;;;;;;5063629;28;20115;-55
2022/03/12 06:17:43;;;;;;;17.42;7.57;;;-2.80;67.00;;;;;;5053920;28;20032;-55
2022/03/12 06:20:10;;;;;;;20.08;8.32;;;-2.70;66.60;;;;;;5061270;28;20415;-56
2022/03/12 06:22:37;;;;;;;17.55;8.23;;;-2.70;66.30;;;;;;5072265;28;20032;-55
2022/03/12 06:25:05;;;;;;;13.63;8.05;;;-2.60;65.80;;;;;;5061591;28;20029;-57
2022/03/12 06:27:31;;;;;;;11.07;7.90;;;-2.60;65.50;;;;;;5054722;28;20027;-56
2022/03/12 06:29:57;;;;;;;10.80;8.13;;;-2.50;64.80;;;;;;5054026;28;20718;-53
2022/03/12 06:32:23;;;;;;;15.38;7.88;;;-2.40;64.20;;;;;;5054936;28;20091;-57
2022/03/12 06:34:49;;;;;;;12.40;8.25;;;-2.40;64.10;;;;;;5062601;28;20036;-54
2022/03/12 06:37:15;;;;;;;10.57;7.68;;;-2.30;63.80;;;;;;5065001;28;20051;-56
2022/03/12 06:39:41;;;;;;;13.27;8.27;;;-2.30;63.40;;;;;;5053525;28;20115;-56
2022/03/12 06:42:07;;;;;;;29.13;10.88;;;-2.20;63.80;;;;;;5053644;28;20100;-55
2022/03/12 06:44:36;;;;;;;13.85;9.27;;;-2.10;63.00;;;;;;5060456;28;20020;-56
2022/03/12 06:47:07;;;;;;;34.90;20.98;;;-2.10;62.90;;;;;;5073531;28;20032;-58
2022/03/12 06:49:33;;;;;;;70.50;38.72;;;-2.00;62.30;;;;;;5071881;28;20510;-55
2022/03/12 06:51:59;;;;;;;24.67;16.55;;;-1.90;61.60;;;;;;5063579;28;20033;-57
2022/03/12 06:54:25;;;;;;;94.45;34.38;;;-1.90;61.30;;;;;;5061111;28;20052;-55
2022/03/12 06:56:51;;;;;;;32.40;17.85;;;-1.80;60.60;;;;;;5068874;28;20025;-56
2022/03/12 06:59:17;;;;;;;14.00;9.75;;;-1.70;61.40;;;;;;5054554;28;20029;-57
2022/03/12 07:01:42;;;;;;;12.43;9.20;;;-1.60;60.90;;;;;;5057248;28;20134;-54
2022/03/12 07:04:10;;;;;;;16.92;12.15;;;-1.50;59.90;;;;;;5073184;28;20023;-56
2022/03/12 07:06:35;;;;;;;12.10;9.75;;;-1.50;58.20;;;;;;5072886;28;20107;-56
2022/03/12 07:09:01;;;;;;;10.25;7.47;;;-1.40;58.40;;;;;;5062617;28;20116;-54
2022/03/12 07:11:28;;;;;;;9.95;7.18;;;-1.40;57.80;;;;;;5054032;28;20020;-57
2022/03/12 07:13:53;;;;;;;10.60;7.50;;;-1.30;57.70;;;;;;5073057;28;20195;-57
2022/03/12 07:16:19;;;;;;;8.70;7.07;;;-1.20;57.20;;;;;;5068628;28;20517;-57
2022/03/12 07:18:45;;;;;;;9.98;7.85;;;-1.20;57.20;;;;;;5052838;28;20033;-57
2022/03/12 07:21:11;;;;;;;10.10;6.95;;;-1.10;57.00;;;;;;5065847;28;20329;-59
2022/03/12 07:23:36;;;;;;;8.38;6.65;;;-1.10;55.70;;;;;;5069515;28;20064;-57
2022/03/12 07:26:02;;;;;;;10.50;7.38;;;-1.00;55.30;;;;;;5071663;28;20585;-58
2022/03/12 07:28:28;;;;;;;11.95;7.45;;;-1.00;55.50;;;;;;5060693;28;20033;-58
2022/03/12 07:30:54;;;;;;;9.25;6.25;;;-0.80;55.90;;;;;;5063287;28;20025;-57
2022/03/12 07:33:20;;;;;;;10.25;6.45;;;-0.80;54.40;;;;;;5071705;28;20037;-58
2022/03/12 07:35:46;;;;;;;11.52;7.55;;;-0.70;54.50;;;;;;5054735;28;20029;-59
2022/03/12 07:38:12;;;;;;;9.07;6.15;;;-0.60;54.60;;;;;;5072143;28;20449;-56
2022/03/12 07:40:40;;;;;;;8.50;6.00;;;-0.60;53.50;;;;;;5061982;28;20069;-58
2022/03/12 07:43:06;;;;;;;8.23;5.97;;;-0.40;55.50;;;;;;5057667;28;20360;-58
2022/03/12 07:45:32;;;;;;;12.55;6.18;;;-0.30;53.70;;;;;;5071275;28;20025;-54
2022/03/12 07:47:58;;;;;;;17.73;7.13;;;-0.30;53.40;;;;;;5052328;28;20021;-54
2022/03/12 07:50:26;;;;;;;15.05;6.35;;;-0.20;53.20;;;;;;5051047;28;20037;-53
2022/03/12 07:52:53;;;;;;;15.32;6.80;;;-0.10;52.90;;;;;;5051182;28;20037;-57
2022/03/12 07:55:18;;;;;;;9.60;7.07;;;0.00;53.00;;;;;;5050803;28;20070;-57
2022/03/12 07:57:45;;;;;;;14.13;5.75;;;0.10;52.60;;;;;;5069004;28;20032;-58
2022/03/12 08:00:13;;;;;;;41.80;9.18;;;0.10;52.00;;;;;;5070524;28;20021;-57
2022/03/12 08:02:39;;;;;;;20.67;6.80;;;0.20;51.30;;;;;;5071463;28;20027;-55
2022/03/12 08:05:05;;;;;;;7.45;5.90;;;0.30;51.80;;;;;;5071736;28;20025;-56
2022/03/12 08:07:32;;;;;;;17.00;5.93;;;0.50;50.90;;;;;;5055172;28;20033;-57
2022/03/12 08:09:59;;;;;;;11.07;6.30;;;0.60;50.90;;;;;;5052034;28;20033;-57
2022/03/12 08:12:28;;;;;;;14.15;7.20;;;0.70;50.60;;;;;;5057896;28;20033;-58
2022/03/12 08:14:54;;;;;;;12.23;8.90;;;0.80;50.70;;;;;;5071796;28;20041;-58
2022/03/12 08:17:20;;;;;;;8.98;6.93;;;0.90;50.10;;;;;;5056931;28;20028;-58
2022/03/12 08:19:46;;;;;;;9.48;7.25;;;1.00;49.80;;;;;;5051866;28;20120;-59
2022/03/12 08:22:13;;;;;;;14.32;7.68;;;1.20;50.50;;;;;;5059301;28;20024;-57
2022/03/12 08:24:39;;;;;;;12.18;7.07;;;1.30;49.60;;;;;;5071635;28;20028;-58
2022/03/12 08:27:06;;;;;;;11.93;6.90;;;1.40;50.10;;;;;;5060812;28;20040;-57
2022/03/12 08:29:32;;;;;;;11.82;6.85;;;1.60;48.40;;;;;;5068669;28;20028;-53
2022/03/12 08:31:57;;;;;;;17.05;6.93;;;1.80;49.10;;;;;;5066899;28;20032;-58
2022/03/12 08:34:23;;;;;;;19.30;6.38;;;1.70;47.00;;;;;;5051681;28;20091;-57
2022/03/12 08:36:49;;;;;;;13.77;6.65;;;1.80;47.20;;;;;;5050675;28;20025;-57
2022/03/12 08:39:16;;;;;;;11.75;6.53;;;1.70;45.50;;;;;;5050826;28;20107;-58
2022/03/12 08:41:42;;;;;;;11.02;7.53;;;1.70;45.70;;;;;;5050084;28;20559;-57
2022/03/12 08:44:09;;;;;;;15.38;7.47;;;1.70;46.20;;;;;;5051653;28;20059;-58
2022/03/12 08:46:36;;;;;;;9.57;5.72;;;1.90;46.40;;;;;;5059114;28;20059;-58
2022/03/12 08:49:03;;;;;;;14.38;6.82;;;2.00;44.60;;;;;;5070938;28;20047;-57
2022/03/12 08:51:29;;;;;;;19.42;6.43;;;2.00;44.70;;;;;;5069311;28;20078;-59
2022/03/12 08:53:55;;;;;;;9.45;6.25;;;2.00;44.70;;;;;;5051642;28;20069;-59
2022/03/12 08:56:20;;;;;;;8.75;6.43;;;2.20;45.60;;;;;;5056052;28;20028;-58
2022/03/12 08:58:47;;;;;;;11.30;5.70;;;2.60;47.00;;;;;;5069190;28;20040;-57
2022/03/12 09:01:13;;;;;;;8.75;5.47;;;2.80;46.70;;;;;;5069994;28;20700;-57
2022/03/12 09:03:39;;;;;;;11.50;5.80;;;3.00;45.10;;;;;;5051234;28;20134;-59
2022/03/12 09:06:07;;;;;;;16.58;6.13;;;3.00;44.10;;;;;;5054780;28;20036;-58
2022/03/12 09:08:34;;;;;;;12.07;6.15;;;3.20;43.80;;;;;;5071043;28;20024;-58
2022/03/12 09:11:00;;;;;;;7.70;5.38;;;3.40;43.60;;;;;;5071428;28;20027;-58
2022/03/12 09:13:26;;;;;;;8.60;6.47;;;3.50;43.00;;;;;;5068691;28;20052;-58
2022/03/12 09:15:51;;;;;;;6.25;4.93;;;3.70;43.30;;;;;;5056331;28;20033;-57
2022/03/12 09:18:18;;;;;;;10.68;5.78;;;3.80;42.40;;;;;;5050203;28;20021;-57
2022/03/12 09:20:46;;;;;;;7.05;6.13;;;3.90;42.70;;;;;;5050285;28;20519;-58
2022/03/12 09:23:16;;;;;;;13.35;8.70;;;4.10;42.60;;;;;;5066391;28;20020;-57
2022/03/12 09:25:42;;;;;;;11.55;7.28;;;4.20;42.10;;;;;;5070242;28;20024;-58
2022/03/12 09:28:08;;;;;;;8.23;7.00;;;4.20;40.80;;;;;;5051507;28;20766;-57
2022/03/12 09:30:34;;;;;;;7.55;5.55;;;4.30;41.20;;;;;;5049148;28;20032;-56
2022/03/12 09:33:00;;;;;;;8.80;6.53;;;4.30;40.30;;;;;;5054024;28;20051;-56
2022/03/12 09:35:28;;;;;;;7.78;6.00;;;4.60;41.10;;;;;;5070915;28;20037;-56
2022/03/12 09:37:55;;;;;;;12.40;6.30;;;4.80;40.20;;;;;;5053064;28;20025;-58
2022/03/12 09:40:21;;;;;;;11.57;6.70;;;4.70;39.80;;;;;;5051042;28;20024;-57
2022/03/12 09:42:47;;;;;;;10.50;6.47;;;5.00;41.70;;;;;;5051077;28;20116;-56
2022/03/12 09:45:14;;;;;;;9.80;6.28;;;5.20;39.80;;;;;;5054989;28;20438;-58
2022/03/12 09:47:40;;;;;;;10.30;6.82;;;5.10;38.50;;;;;;5054922;28;20052;-58
2022/03/12 09:50:07;;;;;;;13.50;5.55;;;5.00;38.40;;;;;;5050864;28;20124;-56
2022/03/12 09:52:32;;;;;;;7.38;5.68;;;5.20;39.60;;;;;;5050715;28;20408;-57
2022/03/12 09:54:58;;;;;;;9.32;5.70;;;5.40;38.30;;;;;;5050898;28;20032;-57
2022/03/12 09:57:24;;;;;;;15.57;6.32;;;5.30;38.40;;;;;;5063992;28;20417;-54
2022/03/12 09:59:50;;;;;;;7.43;5.57;;;5.60;39.80;;;;;;5071604;28;20032;-55
2022/03/12 10:02:15;;;;;;;8.55;5.47;;;5.70;38.10;;;;;;5068480;28;20021;-58
2022/03/12 10:04:43;;;;;;;6.35;5.07;;;5.90;38.70;;;;;;5054423;28;20134;-57
2022/03/12 10:07:09;;;;;;;13.73;5.70;;;6.20;38.80;;;;;;5060025;28;20673;-55
2022/03/12 10:09:38;;;;;;;18.75;7.45;;;6.40;39.00;;;;;;5074118;28;20392;-58
2022/03/12 10:12:05;;;;;;;16.10;5.57;;;6.70;38.10;;;;;;5071016;28;20042;-58
2022/03/12 10:14:31;;;;;;;13.27;5.20;;;6.80;37.80;;;;;;5074053;28;20543;-58
2022/03/12 10:17:00;;;;;;;9.75;5.57;;;6.70;36.60;;;;;;5069547;28;20041;-58
2022/03/12 10:19:26;;;;;;;8.10;5.25;;;6.90;36.80;;;;;;5055870;28;20112;-57
2022/03/12 10:21:53;;;;;;;9.00;5.38;;;7.10;36.80;;;;;;5055518;28;20028;-57
2022/03/12 10:24:19;;;;;;;9.73;5.78;;;7.20;35.90;;;;;;5056384;28;20112;-57
2022/03/12 10:26:45;;;;;;;12.88;7.25;;;7.30;36.40;;;;;;5062442;28;20124;-57
2022/03/12 10:29:11;;;;;;;15.32;8.48;;;7.60;37.30;;;;;;5054146;28;20033;-58
2022/03/12 10:31:41;;;;;;;13.88;8.80;;;7.70;36.80;;;;;;5071442;28;20108;-58
2022/03/12 10:34:21;;;;;;;8.57;6.63;;;7.60;35.50;;;;;;5073906;28;20023;-59
2022/03/12 10:36:53;;;;;;;8.65;5.40;;;7.50;35.40;;;;;;5073658;28;20031;-59
2022/03/12 10:39:33;;;;;;;9.27;6.13;;;7.90;35.90;;;;;;5074075;28;20020;-59
2022/03/12 10:42:07;;;;;;;9.07;6.75;;;8.10;35.50;;;;;;5071136;28;20063;-58
2022/03/12 10:44:40;;;;;;;8.38;6.25;;;8.40;35.50;;;;;;5053770;28;20367;-58
2022/03/12 10:47:26;;;;;;;9.57;6.53;;;8.60;34.50;;;;;;5053571;28;20029;-59
2022/03/12 10:50:19;;;;;;;10.93;5.97;;;9.10;32.70;;;;;;5053454;28;20135;-57
2022/03/12 10:52:50;;;;;;;8.75;5.90;;;9.90;32.30;;;;;;5053337;28;20033;-58
2022/03/12 10:55:25;;;;;;;15.32;8.73;;;11.60;31.60;;;;;;5057842;28;20658;-59
2022/03/12 10:58:03;;;;;;;8.18;5.25;;;12.50;28.90;;;;;;5072654;28;20047;-59
2022/03/12 11:00:38;;;;;;;12.27;6.50;;;13.40;29.10;;;;;;5071553;28;20025;-59
2022/03/12 11:03:12;;;;;;;10.23;4.90;;;13.20;27.60;;;;;;5072878;28;20056;-59
2022/03/12 11:05:38;;;;;;;10.70;5.78;;;14.90;27.70;;;;;;5073077;28;20017;-59
2022/03/12 11:08:07;;;;;;;14.00;9.57;;;16.10;26.80;;;;;;5064699;28;20017;-59
2022/03/12 11:10:33;;;;;;;8.77;6.18;;;15.70;26.30;;;;;;5052038;28;20037;-59
2022/03/12 11:13:01;;;;;;;7.80;5.00;;;16.20;26.00;;;;;;5070970;28;20044;-59
2022/03/12 11:15:27;;;;;;;10.13;6.90;;;16.90;26.20;;;;;;5073151;28;20032;-60
2022/03/12 11:17:53;;;;;;;12.85;7.43;;;17.30;24.90;;;;;;5061241;28;20029;-60
2022/03/12 11:20:21;;;;;;;7.70;5.72;;;16.10;25.20;;;;;;5067086;28;21156;-60
2022/03/12 11:23:04;;;;;;;8.65;4.93;;;16.70;24.90;;;;;;5054134;28;20028;-59
2022/03/12 11:25:30;;;;;;;9.25;5.18;;;16.30;25.10;;;;;;5061707;28;20025;-60
2022/03/12 11:28:00;;;;;;;7.85;5.78;;;17.00;25.10;;;;;;5058037;28;20033;-60
2022/03/12 11:30:30;;;;;;;13.77;5.38;;;17.10;24.30;;;;;;5052952;28;20064;-59
2022/03/12 11:33:07;;;;;;;7.15;4.85;;;17.40;24.70;;;;;;5053883;28;20460;-60
2022/03/12 11:35:44;;;;;;;12.38;5.25;;;17.70;25.40;;;;;;5053329;28;20476;-60
2022/03/12 11:38:21;;;;;;;8.95;5.95;;;17.50;24.10;;;;;;5052736;28;20484;-59
2022/03/12 11:40:49;;;;;;;11.40;5.60;;;17.30;24.00;;;;;;5056041;28;20029;-60
2022/03/12 11:43:22;;;;;;;7.53;5.82;;;18.20;24.90;;;;;;5052711;28;20016;-60
2022/03/12 11:45:48;;;;;;;10.97;5.37;;;18.50;24.10;;;;;;5066843;28;20858;-60
2022/03/12 11:48:14;;;;;;;12.02;5.60;;;18.20;24.20;;;;;;5055416;28;20063;-60
2022/03/12 11:50:40;;;;;;;10.10;5.32;;;19.20;25.20;;;;;;5072259;28;20464;-60
2022/03/12 11:53:06;;;;;;;10.75;5.18;;;18.20;23.60;;;;;;5072138;28;20040;-60
2022/03/12 11:55:32;;;;;;;19.52;5.78;;;18.20;24.30;;;;;;5057147;28;20032;-60
2022/03/12 11:57:59;;;;;;;8.98;6.15;;;18.30;24.20;;;;;;5068178;28;20384;-60
2022/03/12 12:00:29;;;;;;;9.68;5.78;;;18.80;23.90;;;;;;5064518;28;20021;-60
2022/03/12 12:02:56;;;;;;;10.88;5.10;;;19.10;24.00;;;;;;5052314;28;20096;-60
2022/03/12 12:05:25;;;;;;;10.88;5.63;;;19.30;23.90;;;;;;5052279;28;20526;-62
2022/03/12 12:07:52;;;;;;;7.90;5.03;;;18.90;24.70;;;;;;5066777;28;20056;-60
2022/03/12 12:10:26;;;;;;;8.40;4.43;;;19.60;24.10;;;;;;5032577;28;20024;-61
2022/03/12 12:12:53;;;;;;;16.30;5.18;;;20.40;24.10;;;;;;5022053;28;20172;-61
2022/03/12 12:15:26;;;;;;;15.30;5.25;;;20.30;23.80;;;;;;5017626;28;20415;-61
2022/03/12 12:21:17;;;;;;;8.85;5.53;;;19.50;23.30;;;;;;5026987;28;20111;-61
2022/03/12 12:23:43;;;;;;;12.73;4.72;;;19.60;23.20;;;;;;5015005;28;20066;-61
2022/03/12 12:26:11;;;;;;;5.57;4.55;;;19.90;23.30;;;;;;5031101;28;20392;-61
2022/03/12 12:28:50;;;;;;;12.93;5.65;;;20.40;23.30;;;;;;5026371;28;22650;-60
2022/03/12 12:31:24;;;;;;;10.13;6.05;;;21.10;23.20;;;;;;5036261;28;20478;-61
2022/03/12 12:33:50;;;;;;;8.27;4.68;;;20.30;23.20;;;;;;5021249;28;20043;-61
2022/03/12 12:36:18;;;;;;;6.70;4.75;;;20.80;23.30;;;;;;5025055;28;20021;-60
2022/03/12 12:39:04;;;;;;;12.18;4.57;;;21.50;22.70;;;;;;5018226;28;20107;-61
2022/03/12 12:41:53;;;;;;;8.00;5.60;;;20.50;22.10;;;;;;5019241;28;21798;-61
2022/03/12 12:44:44;;;;;;;14.82;5.50;;;20.50;23.20;;;;;;5019858;28;20067;-61
2022/03/12 12:47:17;;;;;;;10.65;5.35;;;20.00;23.10;;;;;;5017586;28;20507;-60
2022/03/12 12:49:53;;;;;;;13.70;5.38;;;20.50;22.30;;;;;;5032769;28;20032;-61